sensor_id;sensor_type;location;lat;lon;timestamp;temperature;humidity
64882;HTU21D;51375;44.836;38.672;2024-02-26T00:00:07;4.31;59.30
64882;HTU21D;51375;44.836;38.672;2024-02-26T00:02:37;4.33;59.31
64882;HTU21D;51375;44.836;38.672;2024-02-26T00:05:05;4.33;59.32
64882;HTU21D;51375;44.836;38.672;2024-02-26T00:07:32;4.35;59.25
64882;HTU21D;51375;44.836;38.672;2024-02-26T00:09:58;4.37;59.25
64882;HTU21D;51375;44.836;38.672;2024-02-26T00:12:23;4.37;59.18
64882;HTU21D;51375;44.836;38.672;2024-02-26T00:14:49;4.38;59.10
64882;HTU21D;51375;44.836;38.672;2024-02-26T00:17:15;4.37;59.16
64882;HTU21D;51375;44.836;38.672;2024-02-26T00:19:42;4.37;59.13
64882;HTU21D;51375;44.836;38.672;2024-02-26T00:22:08;4.36;59.17
64882;HTU21D;51375;44.836;38.672;2024-02-26T00:24:34;4.36;59.13
64882;HTU21D;51375;44.836;38.672;2024-02-26T00:26:59;4.38;59.03
64882;HTU21D;51375;44.836;38.672;2024-02-26T00:29:25;4.35;59.06
64882;HTU21D;51375;44.836;38.672;2024-02-26T00:31:51;4.32;59.09
64882;HTU21D;51375;44.836;38.672;2024-02-26T00:34:17;4.29;59.16
64882;HTU21D;51375;44.836;38.672;2024-02-26T00:36:43;4.27;59.28
64882;HTU21D;51375;44.836;38.672;2024-02-26T00:39:11;4.26;59.35
64882;HTU21D;51375;44.836;38.672;2024-02-26T00:41:41;4.23;59.32
64882;HTU21D;51375;44.836;38.672;2024-02-26T00:44:07;4.22;59.36
64882;HTU21D;51375;44.836;38.672;2024-02-26T00:46:33;4.22;59.33
64882;HTU21D;51375;44.836;38.672;2024-02-26T00:48:59;4.20;59.17
64882;HTU21D;51375;44.836;38.672;2024-02-26T00:51:26;4.14;59.11
64882;HTU21D;51375;44.836;38.672;2024-02-26T00:53:51;4.06;59.20
64882;HTU21D;51375;44.836;38.672;2024-02-26T00:56:17;3.97;59.33
64882;HTU21D;51375;44.836;38.672;2024-02-26T00:58:43;3.92;59.51
64882;HTU21D;51375;44.836;38.672;2024-02-26T01:01:09;3.90;59.60
64882;HTU21D;51375;44.836;38.672;2024-02-26T01:03:35;3.85;59.67
64882;HTU21D;51375;44.836;38.672;2024-02-26T01:06:01;3.79;59.83
64882;HTU21D;51375;44.836;38.672;2024-02-26T01:08:27;3.78;59.89
64882;HTU21D;51375;44.836;38.672;2024-02-26T01:10:54;3.77;59.87
64882;HTU21D;51375;44.836;38.672;2024-02-26T01:13:20;3.74;59.90
64882;HTU21D;51375;44.836;38.672;2024-02-26T01:15:46;3.71;60.11
64882;HTU21D;51375;44.836;38.672;2024-02-26T01:18:12;3.69;60.26
64882;HTU21D;51375;44.836;38.672;2024-02-26T01:20:38;3.71;60.34
64882;HTU21D;51375;44.836;38.672;2024-02-26T01:23:04;3.74;60.29
64882;HTU21D;51375;44.836;38.672;2024-02-26T01:25:30;3.77;60.19
64882;HTU21D;51375;44.836;38.672;2024-02-26T01:27:55;3.82;60.10
64882;HTU21D;51375;44.836;38.672;2024-02-26T01:30:21;3.84;59.86
64882;HTU21D;51375;44.836;38.672;2024-02-26T01:32:48;3.84;59.73
64882;HTU21D;51375;44.836;38.672;2024-02-26T01:35:14;3.84;59.67
64882;HTU21D;51375;44.836;38.672;2024-02-26T01:37:40;3.82;59.76
64882;HTU21D;51375;44.836;38.672;2024-02-26T01:40:07;3.80;59.91
64882;HTU21D;51375;44.836;38.672;2024-02-26T01:42:35;3.82;59.98
64882;HTU21D;51375;44.836;38.672;2024-02-26T01:45:04;3.80;59.84
64882;HTU21D;51375;44.836;38.672;2024-02-26T01:47:32;3.76;59.85
64882;HTU21D;51375;44.836;38.672;2024-02-26T01:49:59;3.62;60.14
64882;HTU21D;51375;44.836;38.672;2024-02-26T01:52:25;3.46;60.58
64882;HTU21D;51375;44.836;38.672;2024-02-26T01:54:51;3.29;61.08
64882;HTU21D;51375;44.836;38.672;2024-02-26T01:57:17;3.16;61.49
64882;HTU21D;51375;44.836;38.672;2024-02-26T01:59:43;3.05;61.77
64882;HTU21D;51375;44.836;38.672;2024-02-26T02:02:10;2.95;62.07
64882;HTU21D;51375;44.836;38.672;2024-02-26T02:04:37;2.83;62.39
64882;HTU21D;51375;44.836;38.672;2024-02-26T02:07:03;2.73;62.66
64882;HTU21D;51375;44.836;38.672;2024-02-26T02:09:30;2.72;62.75
64882;HTU21D;51375;44.836;38.672;2024-02-26T02:11:56;2.75;62.64
64882;HTU21D;51375;44.836;38.672;2024-02-26T02:14:23;2.76;62.54
64882;HTU21D;51375;44.836;38.672;2024-02-26T02:16:49;2.76;62.52
64882;HTU21D;51375;44.836;38.672;2024-02-26T02:19:15;2.76;62.50
64882;HTU21D;51375;44.836;38.672;2024-02-26T02:21:41;2.80;62.47
64882;HTU21D;51375;44.836;38.672;2024-02-26T02:24:07;2.84;62.38
64882;HTU21D;51375;44.836;38.672;2024-02-26T02:26:33;2.84;62.40
64882;HTU21D;51375;44.836;38.672;2024-02-26T02:28:59;2.83;62.42
64882;HTU21D;51375;44.836;38.672;2024-02-26T02:31:26;2.79;62.53
64882;HTU21D;51375;44.836;38.672;2024-02-26T02:33:52;2.74;62.72
64882;HTU21D;51375;44.836;38.672;2024-02-26T02:36:18;2.73;62.73
64882;HTU21D;51375;44.836;38.672;2024-02-26T02:38:51;2.68;62.79
64882;HTU21D;51375;44.836;38.672;2024-02-26T02:41:17;2.61;63.05
64882;HTU21D;51375;44.836;38.672;2024-02-26T02:43:44;2.55;63.21
64882;HTU21D;51375;44.836;38.672;2024-02-26T02:46:10;2.50;63.36
64882;HTU21D;51375;44.836;38.672;2024-02-26T02:48:37;2.44;63.53
64882;HTU21D;51375;44.836;38.672;2024-02-26T02:51:04;2.40;63.64
64882;HTU21D;51375;44.836;38.672;2024-02-26T02:53:30;2.35;63.80
64882;HTU21D;51375;44.836;38.672;2024-02-26T02:55:56;2.32;63.88
64882;HTU21D;51375;44.836;38.672;2024-02-26T02:58:22;2.36;63.80
64882;HTU21D;51375;44.836;38.672;2024-02-26T03:00:48;2.47;63.54
64882;HTU21D;51375;44.836;38.672;2024-02-26T03:03:14;2.61;63.18
64882;HTU21D;51375;44.836;38.672;2024-02-26T03:05:39;2.75;62.83
64882;HTU21D;51375;44.836;38.672;2024-02-26T03:08:06;2.87;62.46
64882;HTU21D;51375;44.836;38.672;2024-02-26T03:10:31;2.94;62.20
64882;HTU21D;51375;44.836;38.672;2024-02-26T03:12:57;3.00;62.03
64882;HTU21D;51375;44.836;38.672;2024-02-26T03:15:23;3.04;61.82
64882;HTU21D;51375;44.836;38.672;2024-02-26T03:17:49;3.05;61.62
64882;HTU21D;51375;44.836;38.672;2024-02-26T03:20:15;3.09;61.34
64882;HTU21D;51375;44.836;38.672;2024-02-26T03:22:44;3.09;61.08
64882;HTU21D;51375;44.836;38.672;2024-02-26T03:25:10;3.09;60.83
64882;HTU21D;51375;44.836;38.672;2024-02-26T03:27:36;3.06;60.67
64882;HTU21D;51375;44.836;38.672;2024-02-26T03:30:02;3.06;60.57
64882;HTU21D;51375;44.836;38.672;2024-02-26T03:32:29;3.05;60.50
64882;HTU21D;51375;44.836;38.672;2024-02-26T03:34:55;3.04;60.44
64882;HTU21D;51375;44.836;38.672;2024-02-26T03:37:21;3.03;60.33
64882;HTU21D;51375;44.836;38.672;2024-02-26T03:39:47;3.00;60.27
64882;HTU21D;51375;44.836;38.672;2024-02-26T03:42:13;2.90;60.31
64882;HTU21D;51375;44.836;38.672;2024-02-26T03:44:39;2.84;60.44
64882;HTU21D;51375;44.836;38.672;2024-02-26T03:47:05;2.81;60.64
64882;HTU21D;51375;44.836;38.672;2024-02-26T03:49:31;2.74;60.76
64882;HTU21D;51375;44.836;38.672;2024-02-26T03:51:57;2.65;61.09
64882;HTU21D;51375;44.836;38.672;2024-02-26T03:54:23;2.46;61.71
64882;HTU21D;51375;44.836;38.672;2024-02-26T03:56:49;2.35;62.21
64882;HTU21D;51375;44.836;38.672;2024-02-26T03:59:15;2.34;62.44
64882;HTU21D;51375;44.836;38.672;2024-02-26T04:01:47;2.28;62.65
64882;HTU21D;51375;44.836;38.672;2024-02-26T04:04:13;2.20;63.02
64882;HTU21D;51375;44.836;38.672;2024-02-26T04:06:39;2.11;63.32
64882;HTU21D;51375;44.836;38.672;2024-02-26T04:09:05;2.05;63.58
64882;HTU21D;51375;44.836;38.672;2024-02-26T04:11:31;1.98;63.82
64882;HTU21D;51375;44.836;38.672;2024-02-26T04:13:57;1.93;64.05
64882;HTU21D;51375;44.836;38.672;2024-02-26T04:16:23;1.88;64.26
64882;HTU21D;51375;44.836;38.672;2024-02-26T04:18:49;1.84;64.40
64882;HTU21D;51375;44.836;38.672;2024-02-26T04:21:15;1.86;64.44
64882;HTU21D;51375;44.836;38.672;2024-02-26T04:23:41;1.92;64.40
64882;HTU21D;51375;44.836;38.672;2024-02-26T04:26:07;1.95;64.39
64882;HTU21D;51375;44.836;38.672;2024-02-26T04:28:33;1.96;64.42
64882;HTU21D;51375;44.836;38.672;2024-02-26T04:30:59;2.05;64.29
64882;HTU21D;51375;44.836;38.672;2024-02-26T04:33:25;2.16;64.08
64882;HTU21D;51375;44.836;38.672;2024-02-26T04:35:51;2.29;63.76
64882;HTU21D;51375;44.836;38.672;2024-02-26T04:38:17;2.41;63.24
64882;HTU21D;51375;44.836;38.672;2024-02-26T04:40:43;2.51;62.81
64882;HTU21D;51375;44.836;38.672;2024-02-26T04:43:09;2.60;62.44
64882;HTU21D;51375;44.836;38.672;2024-02-26T04:45:35;2.70;62.14
64882;HTU21D;51375;44.836;38.672;2024-02-26T04:48:02;2.78;61.89
64882;HTU21D;51375;44.836;38.672;2024-02-26T04:50:28;2.83;61.73
64882;HTU21D;51375;44.836;38.672;2024-02-26T04:52:54;2.93;61.60
64882;HTU21D;51375;44.836;38.672;2024-02-26T04:55:20;2.97;61.64
64882;HTU21D;51375;44.836;38.672;2024-02-26T04:57:46;3.00;61.75
64882;HTU21D;51375;44.836;38.672;2024-02-26T05:00:12;3.02;61.95
64882;HTU21D;51375;44.836;38.672;2024-02-26T05:02:38;3.03;62.17
64882;HTU21D;51375;44.836;38.672;2024-02-26T05:05:06;3.10;62.23
64882;HTU21D;51375;44.836;38.672;2024-02-26T05:07:32;3.17;62.24
64882;HTU21D;51375;44.836;38.672;2024-02-26T05:09:58;3.20;62.35
64882;HTU21D;51375;44.836;38.672;2024-02-26T05:12:24;3.15;62.64
64882;HTU21D;51375;44.836;38.672;2024-02-26T05:14:50;3.18;62.80
64882;HTU21D;51375;44.836;38.672;2024-02-26T05:17:16;3.13;63.05
64882;HTU21D;51375;44.836;38.672;2024-02-26T05:19:42;3.08;63.34
64882;HTU21D;51375;44.836;38.672;2024-02-26T05:22:08;3.00;63.66
64882;HTU21D;51375;44.836;38.672;2024-02-26T05:24:36;3.02;63.83
64882;HTU21D;51375;44.836;38.672;2024-02-26T05:27:03;3.05;63.92
64882;HTU21D;51375;44.836;38.672;2024-02-26T05:29:29;3.08;64.05
64882;HTU21D;51375;44.836;38.672;2024-02-26T05:31:56;3.05;64.18
64882;HTU21D;51375;44.836;38.672;2024-02-26T05:34:22;3.02;64.40
64882;HTU21D;51375;44.836;38.672;2024-02-26T05:36:48;3.00;64.55
64882;HTU21D;51375;44.836;38.672;2024-02-26T05:39:14;2.95;64.79
64882;HTU21D;51375;44.836;38.672;2024-02-26T05:41:40;2.96;65.04
64882;HTU21D;51375;44.836;38.672;2024-02-26T05:44:07;3.08;65.01
64882;HTU21D;51375;44.836;38.672;2024-02-26T05:46:36;3.12;64.88
64882;HTU21D;51375;44.836;38.672;2024-02-26T05:49:01;3.12;64.93
64882;HTU21D;51375;44.836;38.672;2024-02-26T05:51:29;3.15;64.89
64882;HTU21D;51375;44.836;38.672;2024-02-26T05:53:55;3.16;64.89
64882;HTU21D;51375;44.836;38.672;2024-02-26T05:56:24;3.11;65.11
64882;HTU21D;51375;44.836;38.672;2024-02-26T05:58:50;3.18;65.21
64882;HTU21D;51375;44.836;38.672;2024-02-26T06:01:17;3.18;65.13
64882;HTU21D;51375;44.836;38.672;2024-02-26T06:03:44;3.23;65.27
64882;HTU21D;51375;44.836;38.672;2024-02-26T06:06:11;3.31;65.22
64882;HTU21D;51375;44.836;38.672;2024-02-26T06:08:37;3.41;65.16
64882;HTU21D;51375;44.836;38.672;2024-02-26T06:11:06;3.47;64.99
64882;HTU21D;51375;44.836;38.672;2024-02-26T06:13:36;3.53;64.85
64882;HTU21D;51375;44.836;38.672;2024-02-26T06:16:02;3.52;64.76
64882;HTU21D;51375;44.836;38.672;2024-02-26T06:18:28;3.52;64.92
64882;HTU21D;51375;44.836;38.672;2024-02-26T06:20:54;3.57;64.82
64882;HTU21D;51375;44.836;38.672;2024-02-26T06:23:20;3.57;64.84
64882;HTU21D;51375;44.836;38.672;2024-02-26T06:25:46;3.62;64.89
64882;HTU21D;51375;44.836;38.672;2024-02-26T06:28:13;3.60;64.93
64882;HTU21D;51375;44.836;38.672;2024-02-26T06:30:40;3.63;64.92
64882;HTU21D;51375;44.836;38.672;2024-02-26T06:33:06;3.74;64.94
64882;HTU21D;51375;44.836;38.672;2024-02-26T06:35:32;3.76;64.66
64882;HTU21D;51375;44.836;38.672;2024-02-26T06:37:58;3.77;64.81
64882;HTU21D;51375;44.836;38.672;2024-02-26T06:40:24;3.88;64.88
64882;HTU21D;51375;44.836;38.672;2024-02-26T06:42:51;4.03;64.69
64882;HTU21D;51375;44.836;38.672;2024-02-26T06:45:17;4.12;64.34
64882;HTU21D;51375;44.836;38.672;2024-02-26T06:47:45;4.23;64.39
64882;HTU21D;51375;44.836;38.672;2024-02-26T06:50:14;4.31;63.92
64882;HTU21D;51375;44.836;38.672;2024-02-26T06:52:40;4.30;63.88
64882;HTU21D;51375;44.836;38.672;2024-02-26T06:55:07;4.32;63.91
64882;HTU21D;51375;44.836;38.672;2024-02-26T06:57:34;4.35;64.03
64882;HTU21D;51375;44.836;38.672;2024-02-26T07:00:03;4.45;64.14
64882;HTU21D;51375;44.836;38.672;2024-02-26T07:02:32;4.53;63.98
64882;HTU21D;51375;44.836;38.672;2024-02-26T07:04:59;4.62;63.75
64882;HTU21D;51375;44.836;38.672;2024-02-26T07:07:25;4.68;63.55
64882;HTU21D;51375;44.836;38.672;2024-02-26T07:09:51;4.73;63.67
64882;HTU21D;51375;44.836;38.672;2024-02-26T07:12:17;4.82;63.47
64882;HTU21D;51375;44.836;38.672;2024-02-26T07:14:45;4.93;63.47
64882;HTU21D;51375;44.836;38.672;2024-02-26T07:17:11;5.02;63.34
64882;HTU21D;51375;44.836;38.672;2024-02-26T07:19:37;5.15;63.43
64882;HTU21D;51375;44.836;38.672;2024-02-26T07:22:03;5.28;63.25
64882;HTU21D;51375;44.836;38.672;2024-02-26T07:24:29;5.45;63.03
64882;HTU21D;51375;44.836;38.672;2024-02-26T07:26:56;5.51;62.25
64882;HTU21D;51375;44.836;38.672;2024-02-26T07:29:22;5.49;62.63
64882;HTU21D;51375;44.836;38.672;2024-02-26T07:31:48;5.56;62.73
64882;HTU21D;51375;44.836;38.672;2024-02-26T07:34:14;5.74;62.83
64882;HTU21D;51375;44.836;38.672;2024-02-26T07:36:40;5.90;62.20
64882;HTU21D;51375;44.836;38.672;2024-02-26T07:39:06;5.99;62.34
64882;HTU21D;51375;44.836;38.672;2024-02-26T07:41:32;6.17;62.35
64882;HTU21D;51375;44.836;38.672;2024-02-26T07:43:58;6.39;62.08
64882;HTU21D;51375;44.836;38.672;2024-02-26T07:46:24;6.55;61.31
64882;HTU21D;51375;44.836;38.672;2024-02-26T07:48:51;6.58;60.86
64882;HTU21D;51375;44.836;38.672;2024-02-26T07:51:17;6.52;60.95
64882;HTU21D;51375;44.836;38.672;2024-02-26T07:53:43;6.49;61.06
64882;HTU21D;51375;44.836;38.672;2024-02-26T07:56:09;6.46;60.98
64882;HTU21D;51375;44.836;38.672;2024-02-26T07:58:35;6.51;61.21
64882;HTU21D;51375;44.836;38.672;2024-02-26T08:01:01;6.53;61.04
64882;HTU21D;51375;44.836;38.672;2024-02-26T08:03:27;6.59;61.17
64882;HTU21D;51375;44.836;38.672;2024-02-26T08:05:53;6.63;60.84
64882;HTU21D;51375;44.836;38.672;2024-02-26T08:08:19;6.71;61.18
64882;HTU21D;51375;44.836;38.672;2024-02-26T08:10:46;6.86;61.09
64882;HTU21D;51375;44.836;38.672;2024-02-26T08:13:12;6.97;60.67
64882;HTU21D;51375;44.836;38.672;2024-02-26T08:15:41;7.07;60.43
64882;HTU21D;51375;44.836;38.672;2024-02-26T08:18:07;7.14;60.56
64882;HTU21D;51375;44.836;38.672;2024-02-26T08:20:34;7.25;60.51
64882;HTU21D;51375;44.836;38.672;2024-02-26T08:23:00;7.35;60.18
64882;HTU21D;51375;44.836;38.672;2024-02-26T08:25:26;7.47;60.00
64882;HTU21D;51375;44.836;38.672;2024-02-26T08:27:52;7.53;59.94
64882;HTU21D;51375;44.836;38.672;2024-02-26T08:30:18;7.63;59.76
64882;HTU21D;51375;44.836;38.672;2024-02-26T08:32:48;7.68;59.36
64882;HTU21D;51375;44.836;38.672;2024-02-26T08:35:14;7.72;59.77
64882;HTU21D;51375;44.836;38.672;2024-02-26T08:37:43;7.87;59.38
64882;HTU21D;51375;44.836;38.672;2024-02-26T08:40:09;7.88;58.88
64882;HTU21D;51375;44.836;38.672;2024-02-26T08:42:35;7.96;59.09
64882;HTU21D;51375;44.836;38.672;2024-02-26T08:45:02;8.07;59.20
64882;HTU21D;51375;44.836;38.672;2024-02-26T08:47:28;8.21;58.96
64882;HTU21D;51375;44.836;38.672;2024-02-26T08:49:54;8.26;58.50
64882;HTU21D;51375;44.836;38.672;2024-02-26T08:52:20;8.30;58.62
64882;HTU21D;51375;44.836;38.672;2024-02-26T08:54:47;8.34;58.72
64882;HTU21D;51375;44.836;38.672;2024-02-26T08:57:14;8.42;58.41
64882;HTU21D;51375;44.836;38.672;2024-02-26T08:59:40;8.46;58.13
64882;HTU21D;51375;44.836;38.672;2024-02-26T09:02:06;8.52;58.50
64882;HTU21D;51375;44.836;38.672;2024-02-26T09:04:34;8.60;58.20
64882;HTU21D;51375;44.836;38.672;2024-02-26T09:07:01;8.67;57.92
64882;HTU21D;51375;44.836;38.672;2024-02-26T09:09:28;8.75;58.19
64882;HTU21D;51375;44.836;38.672;2024-02-26T09:11:54;8.87;58.22
64882;HTU21D;51375;44.836;38.672;2024-02-26T09:14:21;9.03;58.02
64882;HTU21D;51375;44.836;38.672;2024-02-26T09:16:47;9.16;57.40
64882;HTU21D;51375;44.836;38.672;2024-02-26T09:19:18;9.18;57.14
64882;HTU21D;51375;44.836;38.672;2024-02-26T09:21:44;9.18;56.83
64882;HTU21D;51375;44.836;38.672;2024-02-26T09:24:12;9.14;56.54
64882;HTU21D;51375;44.836;38.672;2024-02-26T09:26:38;9.10;57.08
64882;HTU21D;51375;44.836;38.672;2024-02-26T09:29:04;9.18;56.67
64882;HTU21D;51375;44.836;38.672;2024-02-26T09:31:33;9.24;56.52
64882;HTU21D;51375;44.836;38.672;2024-02-26T09:33:59;9.20;56.43
64882;HTU21D;51375;44.836;38.672;2024-02-26T09:36:25;9.29;56.93
64882;HTU21D;51375;44.836;38.672;2024-02-26T09:38:51;9.44;56.75
64882;HTU21D;51375;44.836;38.672;2024-02-26T09:41:17;9.55;56.03
64882;HTU21D;51375;44.836;38.672;2024-02-26T09:43:45;9.57;55.94
64882;HTU21D;51375;44.836;38.672;2024-02-26T09:46:14;9.64;56.16
64882;HTU21D;51375;44.836;38.672;2024-02-26T09:48:43;9.77;56.10
64882;HTU21D;51375;44.836;38.672;2024-02-26T09:51:11;9.88;56.12
64882;HTU21D;51375;44.836;38.672;2024-02-26T09:53:38;10.04;56.05
64882;HTU21D;51375;44.836;38.672;2024-02-26T09:56:08;10.20;55.82
64882;HTU21D;51375;44.836;38.672;2024-02-26T09:58:36;10.21;54.79
64882;HTU21D;51375;44.836;38.672;2024-02-26T10:01:07;10.15;54.83
64882;HTU21D;51375;44.836;38.672;2024-02-26T10:03:39;10.13;54.99
64882;HTU21D;51375;44.836;38.672;2024-02-26T10:06:07;10.20;54.97
64882;HTU21D;51375;44.836;38.672;2024-02-26T10:08:35;10.23;55.19
64882;HTU21D;51375;44.836;38.672;2024-02-26T10:11:04;10.34;55.02
64882;HTU21D;51375;44.836;38.672;2024-02-26T10:13:30;10.43;54.75
64882;HTU21D;51375;44.836;38.672;2024-02-26T10:15:56;10.49;54.94
64882;HTU21D;51375;44.836;38.672;2024-02-26T10:18:25;10.60;54.95
64882;HTU21D;51375;44.836;38.672;2024-02-26T10:21:01;10.73;54.50
64882;HTU21D;51375;44.836;38.672;2024-02-26T10:23:28;10.72;54.26
64882;HTU21D;51375;44.836;38.672;2024-02-26T10:25:54;10.78;54.54
64882;HTU21D;51375;44.836;38.672;2024-02-26T10:28:21;10.80;54.03
64882;HTU21D;51375;44.836;38.672;2024-02-26T10:30:47;10.81;54.07
64882;HTU21D;51375;44.836;38.672;2024-02-26T10:33:13;10.81;54.07
64882;HTU21D;51375;44.836;38.672;2024-02-26T10:35:45;10.74;53.54
64882;HTU21D;51375;44.836;38.672;2024-02-26T10:38:11;10.67;53.80
64882;HTU21D;51375;44.836;38.672;2024-02-26T10:40:37;10.68;54.01
64882;HTU21D;51375;44.836;38.672;2024-02-26T10:43:03;10.70;53.96
64882;HTU21D;51375;44.836;38.672;2024-02-26T10:45:29;10.74;54.02
64882;HTU21D;51375;44.836;38.672;2024-02-26T10:47:57;10.81;53.62
64882;HTU21D;51375;44.836;38.672;2024-02-26T10:50:24;10.78;53.43
64882;HTU21D;51375;44.836;38.672;2024-02-26T10:52:50;10.74;53.52
64882;HTU21D;51375;44.836;38.672;2024-02-26T10:55:17;10.77;53.43
64882;HTU21D;51375;44.836;38.672;2024-02-26T10:57:45;10.73;53.31
64882;HTU21D;51375;44.836;38.672;2024-02-26T11:00:15;10.71;53.25
64882;HTU21D;51375;44.836;38.672;2024-02-26T11:02:41;10.73;53.07
64882;HTU21D;51375;44.836;38.672;2024-02-26T11:05:11;10.72;53.10
64882;HTU21D;51375;44.836;38.672;2024-02-26T11:07:38;10.77;53.45
64882;HTU21D;51375;44.836;38.672;2024-02-26T11:10:06;10.82;52.78
64882;HTU21D;51375;44.836;38.672;2024-02-26T11:12:34;10.80;52.98
64882;HTU21D;51375;44.836;38.672;2024-02-26T11:15:04;10.82;53.14
64882;HTU21D;51375;44.836;38.672;2024-02-26T11:17:31;10.90;53.04
64882;HTU21D;51375;44.836;38.672;2024-02-26T11:20:00;10.99;52.95
64882;HTU21D;51375;44.836;38.672;2024-02-26T11:22:28;11.10;52.85
64882;HTU21D;51375;44.836;38.672;2024-02-26T11:24:57;11.19;52.98
64882;HTU21D;51375;44.836;38.672;2024-02-26T11:27:34;11.32;52.56
64882;HTU21D;51375;44.836;38.672;2024-02-26T11:30:01;11.34;52.27
64882;HTU21D;51375;44.836;38.672;2024-02-26T11:32:31;11.36;51.91
64882;HTU21D;51375;44.836;38.672;2024-02-26T11:35:00;11.29;51.13
64882;HTU21D;51375;44.836;38.672;2024-02-26T11:37:27;11.17;51.24
64882;HTU21D;51375;44.836;38.672;2024-02-26T11:39:53;11.10;51.20
64882;HTU21D;51375;44.836;38.672;2024-02-26T11:42:24;11.00;51.01
64882;HTU21D;51375;44.836;38.672;2024-02-26T11:44:51;10.97;51.21
64882;HTU21D;51375;44.836;38.672;2024-02-26T11:47:23;10.95;51.32
64882;HTU21D;51375;44.836;38.672;2024-02-26T11:49:49;11.00;51.68
64882;HTU21D;51375;44.836;38.672;2024-02-26T11:52:16;11.14;51.82
64882;HTU21D;51375;44.836;38.672;2024-02-26T11:54:53;11.22;51.45
64882;HTU21D;51375;44.836;38.672;2024-02-26T11:57:29;11.27;51.63
64882;HTU21D;51375;44.836;38.672;2024-02-26T12:00:10;11.36;51.66
64882;HTU21D;51375;44.836;38.672;2024-02-26T12:02:52;11.39;51.37
64882;HTU21D;51375;44.836;38.672;2024-02-26T12:05:31;11.34;51.66
64882;HTU21D;51375;44.836;38.672;2024-02-26T12:08:07;11.41;51.46
64882;HTU21D;51375;44.836;38.672;2024-02-26T12:13:11;11.40;51.29
64882;HTU21D;51375;44.836;38.672;2024-02-26T12:15:42;11.40;51.12
64882;HTU21D;51375;44.836;38.672;2024-02-26T12:18:11;11.41;51.17
64882;HTU21D;51375;44.836;38.672;2024-02-26T12:20:41;11.43;50.91
64882;HTU21D;51375;44.836;38.672;2024-02-26T12:23:07;11.42;50.69
64882;HTU21D;51375;44.836;38.672;2024-02-26T12:25:33;11.45;50.92
64882;HTU21D;51375;44.836;38.672;2024-02-26T12:27:59;11.46;50.53
64882;HTU21D;51375;44.836;38.672;2024-02-26T12:30:26;11.48;50.51
64882;HTU21D;51375;44.836;38.672;2024-02-26T12:33:00;11.49;50.85
64882;HTU21D;51375;44.836;38.672;2024-02-26T12:35:28;11.57;50.69
64882;HTU21D;51375;44.836;38.672;2024-02-26T12:38:15;11.60;50.47
64882;HTU21D;51375;44.836;38.672;2024-02-26T12:40:41;11.59;50.41
64882;HTU21D;51375;44.836;38.672;2024-02-26T12:43:07;11.62;50.30
64882;HTU21D;51375;44.836;38.672;2024-02-26T12:45:42;11.68;50.23
64882;HTU21D;51375;44.836;38.672;2024-02-26T12:48:12;11.68;49.82
64882;HTU21D;51375;44.836;38.672;2024-02-26T12:50:38;11.70;50.03
64882;HTU21D;51375;44.836;38.672;2024-02-26T12:53:05;11.74;49.75
64882;HTU21D;51375;44.836;38.672;2024-02-26T12:55:32;11.74;50.27
64882;HTU21D;51375;44.836;38.672;2024-02-26T12:58:00;11.82;50.24
64882;HTU21D;51375;44.836;38.672;2024-02-26T13:00:27;11.85;50.24
64882;HTU21D;51375;44.836;38.672;2024-02-26T13:02:54;11.88;50.49
64882;HTU21D;51375;44.836;38.672;2024-02-26T13:05:22;11.90;50.36
64882;HTU21D;51375;44.836;38.672;2024-02-26T13:07:49;11.93;50.38
64882;HTU21D;51375;44.836;38.672;2024-02-26T13:10:16;11.96;50.53
64882;HTU21D;51375;44.836;38.672;2024-02-26T13:12:49;11.94;50.24
64882;HTU21D;51375;44.836;38.672;2024-02-26T13:15:21;11.93;50.27
64882;HTU21D;51375;44.836;38.672;2024-02-26T13:17:48;11.92;50.31
64882;HTU21D;51375;44.836;38.672;2024-02-26T13:20:29;11.90;50.56
64882;HTU21D;51375;44.836;38.672;2024-02-26T13:23:09;11.94;50.58
64882;HTU21D;51375;44.836;38.672;2024-02-26T13:25:36;11.98;50.62
64882;HTU21D;51375;44.836;38.672;2024-02-26T13:28:11;11.98;50.38
64882;HTU21D;51375;44.836;38.672;2024-02-26T13:30:38;11.94;50.43
64882;HTU21D;51375;44.836;38.672;2024-02-26T13:33:11;11.90;50.54
64882;HTU21D;51375;44.836;38.672;2024-02-26T13:35:38;11.88;50.79
64882;HTU21D;51375;44.836;38.672;2024-02-26T13:38:05;11.88;50.71
64882;HTU21D;51375;44.836;38.672;2024-02-26T13:40:33;11.85;50.85
64882;HTU21D;51375;44.836;38.672;2024-02-26T13:43:00;11.85;50.91
64882;HTU21D;51375;44.836;38.672;2024-02-26T13:45:26;11.85;50.97
64882;HTU21D;51375;44.836;38.672;2024-02-26T13:48:05;11.87;51.08
64882;HTU21D;51375;44.836;38.672;2024-02-26T13:50:32;11.89;51.02
64882;HTU21D;51375;44.836;38.672;2024-02-26T13:52:58;11.91;51.04
64882;HTU21D;51375;44.836;38.672;2024-02-26T13:55:28;11.88;50.97
64882;HTU21D;51375;44.836;38.672;2024-02-26T13:57:56;11.89;51.01
64882;HTU21D;51375;44.836;38.672;2024-02-26T14:00:23;11.87;50.92
64882;HTU21D;51375;44.836;38.672;2024-02-26T14:02:50;11.83;50.95
64882;HTU21D;51375;44.836;38.672;2024-02-26T14:05:16;11.81;50.82
64882;HTU21D;51375;44.836;38.672;2024-02-26T14:07:42;11.78;50.99
64882;HTU21D;51375;44.836;38.672;2024-02-26T14:10:09;11.79;51.08
64882;HTU21D;51375;44.836;38.672;2024-02-26T14:12:37;11.79;51.17
64882;HTU21D;51375;44.836;38.672;2024-02-26T14:15:07;11.79;51.08
64882;HTU21D;51375;44.836;38.672;2024-02-26T14:17:33;11.77;51.14
64882;HTU21D;51375;44.836;38.672;2024-02-26T14:19:59;11.76;50.99
64882;HTU21D;51375;44.836;38.672;2024-02-26T14:22:25;11.75;50.92
64882;HTU21D;51375;44.836;38.672;2024-02-26T14:24:53;11.70;51.06
64882;HTU21D;51375;44.836;38.672;2024-02-26T14:27:19;11.68;51.18
64882;HTU21D;51375;44.836;38.672;2024-02-26T14:29:49;11.67;51.29
64882;HTU21D;51375;44.836;38.672;2024-02-26T14:32:15;11.67;51.27
64882;HTU21D;51375;44.836;38.672;2024-02-26T14:34:41;11.66;51.18
64882;HTU21D;51375;44.836;38.672;2024-02-26T14:37:07;11.61;51.24
64882;HTU21D;51375;44.836;38.672;2024-02-26T14:39:33;11.59;51.25
64882;HTU21D;51375;44.836;38.672;2024-02-26T14:42:00;11.55;51.16
64882;HTU21D;51375;44.836;38.672;2024-02-26T14:44:27;11.51;51.21
64882;HTU21D;51375;44.836;38.672;2024-02-26T14:46:53;11.46;51.31
64882;HTU21D;51375;44.836;38.672;2024-02-26T14:49:19;11.42;51.27
64882;HTU21D;51375;44.836;38.672;2024-02-26T14:51:45;11.39;51.29
64882;HTU21D;51375;44.836;38.672;2024-02-26T14:54:12;11.34;51.30
64882;HTU21D;51375;44.836;38.672;2024-02-26T14:56:38;11.29;51.32
64882;HTU21D;51375;44.836;38.672;2024-02-26T14:59:04;11.25;51.37
64882;HTU21D;51375;44.836;38.672;2024-02-26T15:01:30;11.19;51.30
64882;HTU21D;51375;44.836;38.672;2024-02-26T15:03:56;11.11;51.33
64882;HTU21D;51375;44.836;38.672;2024-02-26T15:06:23;11.03;51.48
64882;HTU21D;51375;44.836;38.672;2024-02-26T15:08:49;10.98;51.52
64882;HTU21D;51375;44.836;38.672;2024-02-26T15:11:15;10.97;51.44